Startpagina
METAR-TAF:

METAR-TAF

Vliegvelden :

Georgetown, Ascension

breedte: 07-58S, lengte: 014-24W, hoogte: 86 m

METAR: ontbreekt

Tijdstip: 11:30 (11:30 UTC)

Verwachting

Dit bericht is 4 uur en het 0 minuten geleden gemaakt, om 07:30 UTC
Verwachting geldig van 19 om 09 UTC tot 20 om 03 UTC
Wind 15 kt uit het oostzuidoosten met uitschieters tot 25 kt
Zicht 10 km of meer
Weinig wolken op 1800 ft
Gebroken wolken op 3600 ft
Tijdelijke
van 19 om 09 UTC tot 20 om 03 UTC
Verspreide wolken op 1600 ft
Kans 30% :
Tijdelijke
van 19 om 09 UTC tot 19 om 20 UTC
Zicht: 4000 m
Verspreide wolken op 700 ft
regenbuien
Wijzigt naar
van 19 om 11 UTC tot 19 om 13 UTC
Wind 15 kt uit het oostzuidoosten
Kans 40% :
Tijdelijke
van 19 om 20 UTC tot 20 om 03 UTC
Zicht: 4000 m
Verspreide wolken op 700 ft
regenbuien

TAF: FHAW 190730Z 1909/2003 12015G25KT 9999 FEW018 BKN036 TEMPO 1909/2003 SCT016 PROB30 TEMPO 1909/1920 4000 SHRA SCT007 BECMG 1911/1913 12015KT PROB40 TEMPO 1920/2003 4000 SHRA SCT007

Waarnemingen en weersverwachtingen van meer dan 4000 vliegvelden (METAR en TAF).

De beschikbare stations zijn de gele en rode punten op de kaart.

Ga met uw muis naar het station om de naam te zien.

Klik dan om waarnemingen en weersverwachtingen te zien.

kaart wijzigen: klik op de groene knoppen met een zwart kruis om in te zoomen, op de groene knop met een streepje om uit te zoomen of op de groene pijlen voor aangrenzende kaarten.


METAR-TAF: